Imnaha, Oregon
Current Conditions -  °F | °C
As of 1:15 AM on Monday 24 Nov 2014 (Local Time) from KGIC Reporting Station
Overcast Overcast  
Wind Chill: 28°   Ceiling: 4400
Heat Index: 35°   Visibility: 10mi
Dew Point: 28°   Wind: 10mph
Humidity: 74%   Direction: 240°WSW
Pressure: 30.26"   Gusts: NA
Location:  45.56°N, 116.83°W
Report Text: KGIC 240915Z AUTO 24009KT 10SM OVC044 02/M02 A3026 RMK AO1 T00181024
Loading
Personal Weather Stations






























Interactive Weather Map New forecast layout! Learn more

10-Day Weather Forecast

Advertisements
Track Severe Weather on mobile